createdAt,value
2024-04-07T00:00:08.287Z,84.83
2024-04-07T00:01:08.325Z,84.73
2024-04-07T00:02:08.400Z,80.11
2024-04-07T00:03:08.454Z,86.09
2024-04-07T00:04:08.539Z,85.37
2024-04-07T00:05:08.560Z,84.85
2024-04-07T00:06:08.634Z,81.99
2024-04-07T00:07:08.678Z,85.19
2024-04-07T00:08:08.731Z,81.94
2024-04-07T00:09:08.760Z,80.49
2024-04-07T00:10:08.803Z,82.76
2024-04-07T00:11:08.858Z,84.67
2024-04-07T00:12:08.916Z,84.39
2024-04-07T00:13:08.946Z,84.32
2024-04-07T00:14:09.056Z,83.78
2024-04-07T00:15:09.047Z,84.73
2024-04-07T00:16:09.110Z,84.23
2024-04-07T00:17:09.205Z,85.54
2024-04-07T00:18:09.171Z,80.23
2024-04-07T00:19:09.253Z,84.62
2024-04-07T00:20:09.294Z,77.86
2024-04-07T00:21:09.328Z,80.69
2024-04-07T00:22:09.388Z,86.10
2024-04-07T00:23:09.438Z,82.49
2024-04-07T00:24:09.533Z,79.88
2024-04-07T00:25:09.575Z,84.79
2024-04-07T00:26:09.614Z,83.24
2024-04-07T00:27:09.682Z,81.42
2024-04-07T00:28:09.736Z,84.06
2024-04-07T00:29:09.787Z,81.45
2024-04-07T00:30:09.848Z,84.43
2024-04-07T00:31:09.894Z,85.44
2024-04-07T00:32:09.944Z,81.67
2024-04-07T00:33:10.011Z,83.04
2024-04-07T00:34:10.054Z,83.86
2024-04-07T00:35:10.129Z,85.21
2024-04-07T00:36:10.164Z,79.93
2024-04-07T00:37:10.237Z,85.46
2024-04-07T00:38:10.310Z,81.59
2024-04-07T00:39:10.365Z,79.02
2024-04-07T00:40:10.425Z,84.69
2024-04-07T00:41:10.468Z,84.43
2024-04-07T00:42:10.539Z,85.74
2024-04-07T00:43:10.591Z,81.78
2024-04-07T00:44:10.661Z,84.40
2024-04-07T00:45:10.706Z,82.88
2024-04-07T00:46:10.774Z,83.35
2024-04-07T00:47:10.830Z,81.02
2024-04-07T00:48:10.890Z,84.36
2024-04-07T00:49:10.929Z,84.38
2024-04-07T00:50:11.516Z,80.48
2024-04-07T00:51:11.004Z,84.42
2024-04-07T00:52:11.091Z,85.60
2024-04-07T00:53:11.106Z,84.71
2024-04-07T00:54:11.156Z,84.45
2024-04-07T00:55:11.204Z,84.91
2024-04-07T00:56:11.252Z,84.44
2024-04-07T00:57:11.287Z,82.07
2024-04-07T00:58:12.011Z,81.96
2024-04-07T00:59:11.374Z,81.76
2024-04-07T01:00:11.443Z,84.98
2024-04-07T01:01:11.482Z,82.34
2024-04-07T01:02:11.571Z,86.07
2024-04-07T01:03:11.603Z,83.58
2024-04-07T01:04:11.670Z,84.87
2024-04-07T01:05:11.719Z,84.28
2024-04-07T01:06:11.790Z,84.61
2024-04-07T01:07:16.871Z,83.62
2024-04-07T01:08:11.843Z,83.73
2024-04-07T01:09:11.848Z,83.78
2024-04-07T01:10:11.859Z,84.08
2024-04-07T01:11:11.856Z,84.74
2024-04-07T01:12:11.879Z,84.85
2024-04-07T01:13:11.844Z,85.88
2024-04-07T01:14:11.876Z,85.05
2024-04-07T01:15:11.920Z,84.06
2024-04-07T01:16:11.992Z,86.33
2024-04-07T01:17:12.070Z,83.17
2024-04-07T01:18:12.116Z,84.48
2024-04-07T01:19:12.185Z,83.31
2024-04-07T01:20:12.263Z,84.19
2024-04-07T01:21:12.328Z,81.68
2024-04-07T01:22:12.382Z,84.65
2024-04-07T01:23:12.419Z,85.04
2024-04-07T01:24:12.507Z,82.09
2024-04-07T01:25:12.532Z,84.85
2024-04-07T01:26:12.582Z,85.19
2024-04-07T01:27:12.663Z,84.05
2024-04-07T01:28:12.692Z,83.68
2024-04-07T01:29:12.735Z,83.33
2024-04-07T01:30:12.814Z,83.88
2024-04-07T01:31:12.871Z,82.37
2024-04-07T01:32:12.937Z,82.27
2024-04-07T01:33:12.994Z,86.53
2024-04-07T01:34:13.065Z,85.83
2024-04-07T01:35:13.145Z,85.75
2024-04-07T01:36:13.215Z,85.43
2024-04-07T01:37:13.277Z,84.26
2024-04-07T01:38:13.332Z,84.63
2024-04-07T01:39:13.409Z,84.58
2024-04-07T01:40:13.479Z,85.87
2024-04-07T01:41:13.531Z,84.77
2024-04-07T01:42:13.626Z,82.94
2024-04-07T01:43:13.674Z,87.46
2024-04-07T01:44:13.743Z,83.07
2024-04-07T01:45:13.781Z,86.20
2024-04-07T01:46:13.844Z,84.82
2024-04-07T01:47:23.950Z,86.68
2024-04-07T01:48:13.903Z,86.69
2024-04-07T01:49:13.912Z,85.48
2024-04-07T01:50:13.926Z,87.16
2024-04-07T01:51:13.906Z,86.64
2024-04-07T01:52:13.912Z,86.28
2024-04-07T01:53:13.913Z,85.54
2024-04-07T01:54:13.919Z,86.27
2024-04-07T01:55:13.929Z,84.95
2024-04-07T01:56:13.912Z,85.64
2024-04-07T01:57:13.911Z,86.64
2024-04-07T01:58:13.924Z,85.61
2024-04-07T01:59:13.912Z,86.46
2024-04-07T02:00:13.926Z,83.94
2024-04-07T02:01:13.923Z,85.37
2024-04-07T02:02:13.932Z,87.77
2024-04-07T02:03:13.935Z,84.90
2024-04-07T02:04:13.924Z,85.41
2024-04-07T02:05:13.920Z,84.94
2024-04-07T02:06:13.921Z,84.46
2024-04-07T02:07:13.954Z,84.65
2024-04-07T02:08:13.958Z,84.00
2024-04-07T02:09:14.013Z,85.93
2024-04-07T02:10:14.090Z,86.17
2024-04-07T02:11:14.160Z,85.09
2024-04-07T02:12:14.245Z,85.35
2024-04-07T02:13:14.314Z,85.30
2024-04-07T02:14:14.386Z,85.82
2024-04-07T02:15:14.431Z,84.94
2024-04-07T02:16:14.503Z,84.80
2024-04-07T02:17:14.584Z,83.83
2024-04-07T02:18:14.618Z,81.71
2024-04-07T02:19:14.700Z,85.19
2024-04-07T02:20:14.739Z,86.41
2024-04-07T02:21:14.807Z,84.84
2024-04-07T02:22:14.872Z,84.09
2024-04-07T02:23:14.929Z,86.73
2024-04-07T02:24:14.998Z,86.61
2024-04-07T02:25:15.078Z,84.24
2024-04-07T02:26:15.132Z,84.04
2024-04-07T02:27:15.222Z,83.54
2024-04-07T02:28:15.282Z,85.02
2024-04-07T02:29:15.339Z,85.39
2024-04-07T02:30:15.413Z,84.94
2024-04-07T02:31:15.490Z,84.39
2024-04-07T02:32:15.562Z,86.46
2024-04-07T02:33:15.613Z,81.70
2024-04-07T02:34:15.678Z,86.29
2024-04-07T02:35:15.733Z,86.40
2024-04-07T02:36:16.552Z,84.46
2024-04-07T02:37:15.838Z,83.01
2024-04-07T02:38:15.912Z,82.42
2024-04-07T02:39:15.959Z,85.37
2024-04-07T02:40:16.027Z,84.06
2024-04-07T02:41:16.071Z,84.82
2024-04-07T02:42:16.143Z,85.05
2024-04-07T02:43:16.215Z,84.92
2024-04-07T02:44:16.277Z,85.06
2024-04-07T02:45:16.332Z,83.92
2024-04-07T02:46:16.411Z,83.95
2024-04-07T02:47:16.482Z,85.50
2024-04-07T02:48:16.567Z,82.43
2024-04-07T02:49:16.622Z,82.86
2024-04-07T02:50:16.704Z,86.64
2024-04-07T02:51:16.753Z,82.82
2024-04-07T02:52:16.820Z,82.39
2024-04-07T02:53:16.860Z,84.77
2024-04-07T02:54:16.938Z,84.01
2024-04-07T02:55:16.987Z,84.48
2024-04-07T02:56:17.056Z,83.88
2024-04-07T02:57:17.090Z,84.06
2024-04-07T02:58:17.167Z,84.41
2024-04-07T02:59:17.213Z,83.47
2024-04-07T03:00:17.294Z,84.02
2024-04-07T03:01:18.367Z,82.21
2024-04-07T03:02:17.451Z,83.67
2024-04-07T03:03:17.500Z,82.52
2024-04-07T03:04:17.574Z,82.04
2024-04-07T03:05:17.652Z,81.65
2024-04-07T03:06:17.695Z,83.81
2024-04-07T03:07:17.767Z,83.05
2024-04-07T03:08:17.828Z,82.02
2024-04-07T03:09:17.889Z,81.12
2024-04-07T03:10:17.963Z,83.28
2024-04-07T03:11:18.026Z,80.73
2024-04-07T03:12:18.089Z,80.29
2024-04-07T03:13:18.171Z,83.26
2024-04-07T03:14:18.231Z,83.14
2024-04-07T03:15:18.330Z,81.32
2024-04-07T03:16:18.385Z,83.53
2024-04-07T03:17:18.456Z,81.76
2024-04-07T03:18:18.523Z,83.35
2024-04-07T03:19:18.618Z,82.54
2024-04-07T03:20:18.678Z,81.29
2024-04-07T03:21:18.733Z,83.48
2024-04-07T03:22:18.823Z,81.84
2024-04-07T03:23:18.883Z,82.83
2024-04-07T03:24:18.956Z,81.97
2024-04-07T03:25:18.984Z,81.53
2024-04-07T03:26:19.066Z,82.28
2024-04-07T03:27:19.136Z,80.79
2024-04-07T03:28:19.186Z,81.01
2024-04-07T03:29:19.255Z,81.45
2024-04-07T03:30:19.308Z,81.65
2024-04-07T03:31:19.368Z,79.78
2024-04-07T03:32:19.459Z,80.47
2024-04-07T03:33:19.537Z,79.38
2024-04-07T03:34:19.571Z,81.16
2024-04-07T03:35:19.635Z,81.68
2024-04-07T03:36:19.681Z,82.20
2024-04-07T03:37:19.822Z,79.76
2024-04-07T03:38:19.846Z,82.08
2024-04-07T03:39:19.892Z,81.93
2024-04-07T03:40:19.991Z,80.14
2024-04-07T03:41:20.033Z,79.72
2024-04-07T03:42:20.082Z,80.32
2024-04-07T03:43:20.170Z,78.50
2024-04-07T03:44:20.270Z,82.23
2024-04-07T03:45:20.287Z,80.29
2024-04-07T03:46:20.407Z,81.49
2024-04-07T03:47:20.417Z,81.35
2024-04-07T03:48:20.489Z,81.87
2024-04-07T03:49:20.539Z,81.00
2024-04-07T03:50:20.600Z,79.90
2024-04-07T03:51:20.678Z,80.64
2024-04-07T03:52:20.758Z,81.16
2024-04-07T03:53:20.803Z,80.22
2024-04-07T03:54:20.880Z,80.12
2024-04-07T03:55:20.943Z,78.15
2024-04-07T03:56:21.016Z,79.71
2024-04-07T03:57:21.069Z,79.73
2024-04-07T03:58:21.123Z,78.60
2024-04-07T03:59:21.261Z,78.48
2024-04-07T04:00:21.243Z,79.33
2024-04-07T04:01:21.347Z,78.73
2024-04-07T04:02:21.389Z,79.57
2024-04-07T04:03:23.785Z,78.21
2024-04-07T04:04:21.454Z,79.21
2024-04-07T04:05:21.472Z,80.58
2024-04-07T04:06:21.485Z,80.81
2024-04-07T04:07:21.499Z,80.56
2024-04-07T04:08:21.465Z,79.51
2024-04-07T04:09:21.474Z,80.70
2024-04-07T04:10:21.473Z,80.38
2024-04-07T04:11:21.477Z,78.77
2024-04-07T04:12:21.465Z,79.32
2024-04-07T04:13:21.469Z,80.32
2024-04-07T04:14:21.478Z,81.09
2024-04-07T04:15:21.499Z,80.85
2024-04-07T04:16:21.478Z,78.25
2024-04-07T04:17:21.511Z,78.56
2024-04-07T04:18:21.483Z,79.08
2024-04-07T04:19:21.488Z,80.19
2024-04-07T04:20:21.482Z,77.97
2024-04-07T04:21:21.484Z,77.76
2024-04-07T04:22:21.489Z,78.24
2024-04-07T04:23:21.490Z,76.99
2024-04-07T04:24:21.486Z,78.20
2024-04-07T04:25:21.498Z,79.56
2024-04-07T04:26:21.511Z,77.92
2024-04-07T04:27:21.498Z,78.59
2024-04-07T04:28:21.492Z,80.30
2024-04-07T04:29:21.538Z,77.22
2024-04-07T04:30:21.612Z,79.04
2024-04-07T04:31:21.681Z,78.34
2024-04-07T04:32:21.755Z,77.70
2024-04-07T04:33:21.806Z,77.43
2024-04-07T04:34:22.597Z,78.42
2024-04-07T04:35:21.948Z,78.10
2024-04-07T04:36:22.018Z,77.02
2024-04-07T04:37:22.093Z,78.55
2024-04-07T04:38:22.152Z,78.00
2024-04-07T04:39:22.212Z,78.41
2024-04-07T04:40:22.286Z,77.45
2024-04-07T04:41:22.356Z,78.29
2024-04-07T04:42:38.014Z,50.00
2024-04-07T04:43:29.932Z,50.00
2024-04-07T04:44:29.931Z,50.00
2024-04-07T04:45:29.933Z,50.00
2024-04-07T04:46:29.949Z,50.00
2024-04-07T04:47:29.958Z,50.00
2024-04-07T04:48:29.972Z,52.14
2024-04-07T04:49:30.028Z,50.52
2024-04-07T04:50:30.115Z,51.60
2024-04-07T04:51:30.182Z,50.78
2024-04-07T04:52:40.288Z,53.31
2024-04-07T04:53:30.256Z,53.35
2024-04-07T04:54:30.264Z,51.85
2024-04-07T04:55:30.273Z,52.93
2024-04-07T04:56:30.268Z,53.70
2024-04-07T04:57:30.263Z,53.76
2024-04-07T04:58:30.262Z,50.77
2024-04-07T04:59:30.270Z,50.98
2024-04-07T05:00:30.277Z,51.92
2024-04-07T05:01:30.282Z,50.83
2024-04-07T05:02:30.273Z,51.66
2024-04-07T05:03:30.259Z,51.77
2024-04-07T05:04:30.263Z,51.25
2024-04-07T05:05:30.274Z,53.04
2024-04-07T05:06:30.279Z,53.49
2024-04-07T05:07:30.285Z,53.89
2024-04-07T05:08:30.260Z,51.16
2024-04-07T05:09:30.259Z,50.99
2024-04-07T05:10:30.266Z,52.23
2024-04-07T05:11:30.270Z,51.94
2024-04-07T05:12:35.306Z,51.56
2024-04-07T05:13:30.304Z,51.63
2024-04-07T05:14:30.307Z,51.59
2024-04-07T05:15:30.275Z,51.59
2024-04-07T05:16:30.310Z,51.85
2024-04-07T05:17:35.347Z,51.70
2024-04-07T05:18:30.295Z,51.60
2024-04-07T05:19:30.297Z,51.61
2024-04-07T05:20:30.294Z,51.51
2024-04-07T05:21:30.290Z,52.09
2024-04-07T05:22:35.314Z,50.55
2024-04-07T05:23:30.289Z,49.92
2024-04-07T05:24:30.294Z,51.61
2024-04-07T05:25:30.297Z,51.58
2024-04-07T05:26:30.307Z,50.39
2024-04-07T05:27:35.327Z,52.21
2024-04-07T05:28:30.326Z,51.56
2024-04-07T05:29:30.291Z,48.75
2024-04-07T05:30:30.300Z,50.73
2024-04-07T05:31:30.303Z,50.32
2024-04-07T05:32:30.316Z,49.85
2024-04-07T05:33:30.376Z,50.00
2024-04-07T05:34:30.430Z,51.42
2024-04-07T05:35:30.507Z,52.24
2024-04-07T05:36:30.586Z,52.52
2024-04-07T05:37:30.656Z,53.17
2024-04-07T05:38:30.718Z,52.45
2024-04-07T05:39:30.809Z,50.91
2024-04-07T05:40:30.855Z,53.25
2024-04-07T05:41:30.932Z,51.80
2024-04-07T05:42:31.002Z,53.68
2024-04-07T05:43:31.064Z,51.95
2024-04-07T05:44:31.131Z,50.22
2024-04-07T05:45:31.195Z,51.82
2024-04-07T05:46:31.260Z,52.03
2024-04-07T05:47:31.330Z,53.34
2024-04-07T05:48:31.379Z,51.35
2024-04-07T05:49:31.446Z,52.68
2024-04-07T05:50:31.511Z,53.47
2024-04-07T05:51:31.588Z,51.19
2024-04-07T05:52:36.684Z,51.56
2024-04-07T05:53:31.670Z,51.57
2024-04-07T05:54:31.673Z,51.33
2024-04-07T05:55:31.667Z,51.86
2024-04-07T05:56:31.662Z,52.36
2024-04-07T05:57:31.660Z,54.54
2024-04-07T05:58:31.808Z,54.09
2024-04-07T05:59:31.779Z,53.97
2024-04-07T06:00:31.799Z,51.63
2024-04-07T06:01:31.856Z,50.71
2024-04-07T06:02:31.901Z,52.85
2024-04-07T06:03:31.984Z,52.45
2024-04-07T06:04:32.018Z,53.34
2024-04-07T06:05:32.095Z,52.74
2024-04-07T06:06:32.163Z,51.86
2024-04-07T06:07:32.242Z,52.42
2024-04-07T06:08:32.316Z,51.41
2024-04-07T06:09:32.387Z,52.67
2024-04-07T06:10:32.457Z,53.16
2024-04-07T06:11:32.528Z,54.08
2024-04-07T06:12:32.581Z,50.49
2024-04-07T06:13:32.628Z,52.62
2024-04-07T06:14:32.685Z,53.72
2024-04-07T06:15:32.739Z,53.53
2024-04-07T06:16:32.805Z,52.32
2024-04-07T06:17:32.862Z,53.24
2024-04-07T06:18:32.927Z,51.64
2024-04-07T06:19:32.987Z,52.25
2024-04-07T06:20:33.049Z,51.24
2024-04-07T06:21:33.092Z,52.93
2024-04-07T06:22:33.158Z,54.17
2024-04-07T06:23:33.231Z,56.07
2024-04-07T06:24:33.279Z,54.32
2024-04-07T06:25:33.322Z,53.04
2024-04-07T06:26:33.392Z,53.75
2024-04-07T06:27:33.457Z,53.93
2024-04-07T06:28:33.506Z,53.92
2024-04-07T06:29:33.554Z,53.56
2024-04-07T06:30:33.625Z,52.71
2024-04-07T06:31:34.313Z,55.17
2024-04-07T06:32:33.788Z,55.25
2024-04-07T06:33:33.788Z,53.41
2024-04-07T06:34:33.855Z,54.56
2024-04-07T06:35:33.916Z,54.16
2024-04-07T06:36:35.777Z,55.74
2024-04-07T06:37:33.963Z,56.07
2024-04-07T06:38:33.960Z,55.43
2024-04-07T06:39:33.951Z,55.82
2024-04-07T06:40:33.955Z,55.35
2024-04-07T06:41:33.962Z,55.99
2024-04-07T06:42:39.006Z,56.80
2024-04-07T06:43:33.968Z,56.84
2024-04-07T06:44:33.960Z,56.43
2024-04-07T06:45:33.960Z,55.77
2024-04-07T06:46:33.967Z,56.92
2024-04-07T06:47:33.977Z,54.92
2024-04-07T06:48:33.981Z,53.89
2024-04-07T06:49:34.022Z,54.92
2024-04-07T06:50:34.081Z,52.65
2024-04-07T06:51:34.147Z,54.38
2024-04-07T06:52:34.182Z,56.05
2024-04-07T06:53:34.220Z,51.27
2024-04-07T06:54:34.247Z,55.79
2024-04-07T06:55:34.311Z,51.50
2024-04-07T06:56:34.374Z,51.31
2024-04-07T06:57:34.410Z,53.36
2024-04-07T06:58:34.463Z,55.45
2024-04-07T06:59:34.532Z,56.38
2024-04-07T07:00:34.596Z,56.71
2024-04-07T07:01:34.602Z,57.45
2024-04-07T07:02:34.695Z,57.07
2024-04-07T07:03:34.687Z,57.04
2024-04-07T07:04:34.731Z,55.53
2024-04-07T07:05:34.779Z,58.00
2024-04-07T07:06:34.845Z,55.62
2024-04-07T07:07:34.924Z,57.52
2024-04-07T07:08:34.930Z,57.06
2024-04-07T07:09:34.973Z,59.41
2024-04-07T07:10:35.014Z,57.86
2024-04-07T07:11:35.072Z,57.85
2024-04-07T07:12:35.129Z,56.93
2024-04-07T07:13:35.162Z,57.95
2024-04-07T07:14:35.199Z,54.94
2024-04-07T07:15:35.253Z,58.47
2024-04-07T07:16:40.047Z,59.91
2024-04-07T07:17:36.279Z,54.43
2024-04-07T07:18:35.282Z,55.56
2024-04-07T07:19:35.284Z,58.00
2024-04-07T07:20:35.292Z,55.13
2024-04-07T07:21:35.283Z,58.16
2024-04-07T07:22:35.289Z,54.23
2024-04-07T07:23:35.294Z,53.33
2024-04-07T07:24:35.299Z,55.34
2024-04-07T07:25:35.317Z,55.74
2024-04-07T07:26:35.313Z,54.11
2024-04-07T07:27:35.317Z,50.00
2024-04-07T07:28:35.300Z,59.05
2024-04-07T07:29:35.302Z,57.18
2024-04-07T07:30:35.360Z,53.88
2024-04-07T07:31:35.382Z,60.41
2024-04-07T07:32:35.419Z,57.41
2024-04-07T07:33:35.462Z,57.51
2024-04-07T07:34:35.504Z,52.75
2024-04-07T07:35:35.550Z,55.38
2024-04-07T07:36:35.596Z,53.48
2024-04-07T07:37:35.654Z,59.99
2024-04-07T07:38:35.701Z,55.19
2024-04-07T07:39:35.746Z,55.15
2024-04-07T07:40:35.781Z,60.03
2024-04-07T07:41:35.820Z,59.06
2024-04-07T07:42:35.864Z,55.21
2024-04-07T07:43:35.898Z,52.78
2024-04-07T07:44:35.939Z,60.77
2024-04-07T07:45:35.957Z,57.49
2024-04-07T07:46:35.970Z,58.91
2024-04-07T07:47:36.002Z,54.62
2024-04-07T07:48:36.032Z,57.03
2024-04-07T07:49:36.053Z,57.46
2024-04-07T07:50:38.324Z,55.09
2024-04-07T07:51:36.092Z,55.07
2024-04-07T07:52:36.095Z,57.26
2024-04-07T07:53:36.103Z,57.96
2024-04-07T07:54:36.085Z,59.24
2024-04-07T07:55:36.097Z,54.21
2024-04-07T07:56:36.096Z,59.73
2024-04-07T07:57:36.098Z,58.46
2024-04-07T07:58:36.183Z,56.25
2024-04-07T07:59:36.108Z,59.29
2024-04-07T08:00:36.109Z,60.65
2024-04-07T08:01:39.087Z,60.73
2024-04-07T08:02:36.120Z,58.14
2024-04-07T08:03:36.132Z,54.33
2024-04-07T08:04:36.149Z,58.38
2024-04-07T08:05:36.122Z,58.21
2024-04-07T08:06:36.127Z,57.81
2024-04-07T08:07:36.131Z,59.12
2024-04-07T08:08:36.112Z,62.60
2024-04-07T08:09:36.116Z,59.41
2024-04-07T08:10:36.111Z,62.47
2024-04-07T08:11:36.121Z,59.52
2024-04-07T08:12:38.501Z,60.53
2024-04-07T08:13:36.284Z,58.08
2024-04-07T08:14:36.318Z,58.52
2024-04-07T08:15:36.359Z,62.52
2024-04-07T08:16:36.357Z,54.84
2024-04-07T08:17:36.401Z,63.21
2024-04-07T08:18:36.513Z,62.07
2024-04-07T08:19:36.528Z,56.76
2024-04-07T08:20:36.548Z,59.68
2024-04-07T08:21:36.598Z,60.22
2024-04-07T08:22:36.618Z,62.70
2024-04-07T08:23:36.653Z,57.21
2024-04-07T08:24:36.678Z,59.36
2024-04-07T08:25:36.728Z,61.22
2024-04-07T08:26:36.779Z,61.71
2024-04-07T08:27:36.796Z,60.65
2024-04-07T08:28:36.783Z,62.91
2024-04-07T08:29:36.823Z,62.12
2024-04-07T08:30:39.397Z,61.37
2024-04-07T08:31:37.014Z,66.28
2024-04-07T08:32:37.122Z,61.42
2024-04-07T08:33:37.079Z,60.07
2024-04-07T08:34:37.089Z,61.87
2024-04-07T08:35:37.140Z,56.45
2024-04-07T08:36:37.165Z,64.20
2024-04-07T08:37:37.191Z,63.17
2024-04-07T08:38:37.224Z,60.93
2024-04-07T08:39:37.266Z,65.36
2024-04-07T08:40:37.297Z,63.30
2024-04-07T08:41:37.332Z,68.03
2024-04-07T08:42:37.335Z,63.45
2024-04-07T08:43:37.357Z,59.87
2024-04-07T08:44:37.392Z,60.12
2024-04-07T08:45:37.420Z,61.86
2024-04-07T08:46:37.434Z,66.21
2024-04-07T08:47:37.459Z,57.95
2024-04-07T08:48:37.460Z,63.19
2024-04-07T08:49:37.488Z,67.02
2024-04-07T08:50:37.607Z,66.58
2024-04-07T08:51:37.716Z,59.46
2024-04-07T08:52:37.723Z,65.00
2024-04-07T08:53:37.735Z,69.40
2024-04-07T08:54:37.769Z,65.35
2024-04-07T08:55:37.795Z,66.99
2024-04-07T08:56:37.801Z,70.54
2024-04-07T08:57:37.824Z,62.40
2024-04-07T08:58:37.863Z,65.05
2024-04-07T08:59:37.909Z,67.60
2024-04-07T09:00:37.919Z,73.83
2024-04-07T09:01:37.944Z,69.19
2024-04-07T09:02:37.955Z,67.12
2024-04-07T09:03:38.035Z,70.28
2024-04-07T09:04:38.005Z,68.68
2024-04-07T09:05:38.051Z,63.21
2024-04-07T09:06:38.157Z,67.89
2024-04-07T09:07:38.272Z,72.62
2024-04-07T09:08:38.392Z,68.75
2024-04-07T09:09:38.511Z,72.09
2024-04-07T09:10:38.546Z,68.72
2024-04-07T09:11:38.578Z,67.31
2024-04-07T09:12:38.538Z,64.69
2024-04-07T09:13:38.563Z,67.65
2024-04-07T09:14:38.599Z,70.87
2024-04-07T09:15:38.617Z,67.82
2024-04-07T09:16:46.189Z,50.00
2024-04-07T09:17:46.185Z,50.00
2024-04-07T09:18:46.186Z,50.00
2024-04-07T09:19:46.193Z,50.00
2024-04-07T09:20:46.183Z,50.00
2024-04-07T09:21:46.190Z,53.23
2024-04-07T09:22:46.199Z,54.96
2024-04-07T09:23:46.199Z,57.33
2024-04-07T09:24:46.192Z,51.59
2024-04-07T09:25:49.131Z,58.37
2024-04-07T09:26:46.204Z,62.04
2024-04-07T09:27:46.212Z,58.87
2024-04-07T09:28:46.214Z,55.69
2024-04-07T09:29:46.207Z,58.01
2024-04-07T09:30:46.199Z,55.72
2024-04-07T09:31:46.214Z,56.07
2024-04-07T09:32:46.211Z,58.73
2024-04-07T09:33:46.218Z,58.12
2024-04-07T09:34:46.245Z,58.48
2024-04-07T09:35:46.220Z,58.26
2024-04-07T09:36:46.220Z,55.49
2024-04-07T09:37:46.215Z,54.82
2024-04-07T09:38:46.220Z,58.27
2024-04-07T09:39:46.225Z,54.28
2024-04-07T09:40:46.237Z,57.10
2024-04-07T09:41:46.234Z,55.76
2024-04-07T09:42:46.253Z,58.45
2024-04-07T09:43:46.249Z,56.96
2024-04-07T09:44:46.236Z,57.55
2024-04-07T09:45:46.243Z,55.05
2024-04-07T09:46:46.237Z,58.26
2024-04-07T09:47:46.245Z,55.02
2024-04-07T09:48:46.246Z,57.38
2024-04-07T09:49:46.234Z,56.74
2024-04-07T09:50:46.239Z,58.77
2024-04-07T09:51:46.233Z,62.11
2024-04-07T09:52:46.234Z,60.23
2024-04-07T09:53:46.234Z,53.03
2024-04-07T09:54:46.250Z,55.41
2024-04-07T09:55:46.239Z,56.46
2024-04-07T09:56:46.251Z,55.47
2024-04-07T09:57:46.249Z,54.07
2024-04-07T09:58:46.253Z,57.99
2024-04-07T09:59:46.252Z,54.46
2024-04-07T10:00:46.258Z,63.33
2024-04-07T10:01:46.271Z,54.51
2024-04-07T10:02:46.250Z,61.89
2024-04-07T10:03:46.257Z,58.26
2024-04-07T10:04:46.263Z,58.15
2024-04-07T10:05:46.257Z,57.28
2024-04-07T10:06:46.261Z,58.14
2024-04-07T10:07:46.255Z,57.31
2024-04-07T10:08:46.261Z,59.60
2024-04-07T10:09:46.272Z,57.66
2024-04-07T10:10:55.281Z,58.43
2024-04-07T10:11:47.270Z,58.45
2024-04-07T10:12:46.259Z,59.29
2024-04-07T10:13:46.265Z,59.46
2024-04-07T10:14:46.269Z,57.14
2024-04-07T10:15:46.276Z,62.81
2024-04-07T10:16:46.282Z,60.46
2024-04-07T10:17:46.270Z,56.98
2024-04-07T10:18:46.292Z,56.32
2024-04-07T10:19:46.276Z,56.42
2024-04-07T10:20:46.286Z,56.63
2024-04-07T10:21:46.292Z,60.84
2024-04-07T10:22:46.285Z,54.59
2024-04-07T10:23:48.924Z,56.98
2024-04-07T10:24:46.289Z,57.76
2024-04-07T10:25:46.298Z,55.86
2024-04-07T10:26:46.278Z,58.19
2024-04-07T10:27:46.283Z,56.49
2024-04-07T10:28:46.306Z,58.33
2024-04-07T10:29:46.295Z,53.60
2024-04-07T10:30:46.301Z,58.65
2024-04-07T10:31:46.306Z,51.67
2024-04-07T10:32:46.289Z,53.29
2024-04-07T10:33:46.298Z,53.86
2024-04-07T10:34:46.303Z,53.30
2024-04-07T10:35:46.304Z,61.30
2024-04-07T10:36:46.305Z,54.51
2024-04-07T10:37:46.306Z,53.81
2024-04-07T10:38:46.319Z,54.17
2024-04-07T10:39:46.302Z,54.08
2024-04-07T10:40:46.315Z,52.34
2024-04-07T10:41:46.321Z,52.39
2024-04-07T10:42:46.332Z,52.51
2024-04-07T10:43:46.320Z,53.80
2024-04-07T10:44:46.331Z,57.08
2024-04-07T10:45:46.321Z,57.11
2024-04-07T10:46:46.339Z,53.17
2024-04-07T10:47:46.335Z,56.52
2024-04-07T10:48:46.343Z,54.69
2024-04-07T10:49:46.323Z,55.11
2024-04-07T10:50:46.339Z,60.66
2024-04-07T10:51:46.339Z,56.98
2024-04-07T10:52:46.361Z,52.52
2024-04-07T10:53:46.347Z,55.58
2024-04-07T10:54:46.356Z,57.08
2024-04-07T10:55:46.335Z,52.11
2024-04-07T10:56:46.340Z,54.39
2024-04-07T10:57:46.346Z,56.51
2024-04-07T10:58:46.347Z,53.49
2024-04-07T10:59:46.342Z,56.71
2024-04-07T11:00:46.348Z,54.73
2024-04-07T11:01:46.334Z,58.65
2024-04-07T11:02:46.340Z,57.88
2024-04-07T11:03:46.350Z,58.81
2024-04-07T11:04:46.345Z,60.22
2024-04-07T11:05:46.357Z,51.41
2024-04-07T11:06:47.084Z,58.58
2024-04-07T11:07:46.340Z,55.80
2024-04-07T11:08:46.347Z,61.26
2024-04-07T11:09:46.350Z,58.03
2024-04-07T11:10:46.408Z,57.74
2024-04-07T11:11:46.363Z,55.13
2024-04-07T11:12:46.347Z,58.55
2024-04-07T11:13:46.346Z,52.02
2024-04-07T11:14:46.348Z,54.69
2024-04-07T11:15:46.361Z,58.95
2024-04-07T11:16:46.363Z,54.82
2024-04-07T11:17:46.373Z,51.98
2024-04-07T11:18:46.362Z,54.28
2024-04-07T11:19:46.370Z,54.13
2024-04-07T11:20:46.360Z,55.55
2024-04-07T11:21:46.364Z,53.52
2024-04-07T11:22:46.370Z,53.33
2024-04-07T11:23:46.761Z,56.43
2024-04-07T11:24:46.384Z,57.46
2024-04-07T11:25:46.379Z,58.08
2024-04-07T11:26:46.387Z,53.34
2024-04-07T11:27:46.364Z,54.09
2024-04-07T11:28:46.375Z,52.03
2024-04-07T11:29:46.380Z,51.08
2024-04-07T11:30:46.400Z,54.62
2024-04-07T11:31:48.062Z,57.38
2024-04-07T11:32:47.388Z,54.82
2024-04-07T11:33:46.385Z,56.83
2024-04-07T11:34:47.846Z,54.24
2024-04-07T11:35:46.400Z,53.64
2024-04-07T11:36:46.390Z,51.49
2024-04-07T11:37:46.392Z,54.34
2024-04-07T11:38:46.407Z,53.27
2024-04-07T11:39:55.715Z,52.58
2024-04-07T11:40:47.407Z,52.66
2024-04-07T11:41:46.410Z,52.76
2024-04-07T11:42:46.425Z,52.59
2024-04-07T11:43:46.404Z,53.87
2024-04-07T11:44:46.411Z,54.48
2024-04-07T11:45:46.416Z,55.94
2024-04-07T11:46:46.414Z,51.77
2024-04-07T11:47:46.420Z,55.88
2024-04-07T11:48:46.434Z,54.53
2024-04-07T11:49:46.433Z,53.10
2024-04-07T11:50:46.414Z,51.98
2024-04-07T11:51:46.419Z,53.38
2024-04-07T11:52:46.424Z,53.07
2024-04-07T11:53:46.527Z,56.27
2024-04-07T11:54:46.440Z,50.12
2024-04-07T11:55:46.421Z,51.35
2024-04-07T11:56:46.431Z,51.47
2024-04-07T11:57:46.437Z,55.89
2024-04-07T11:58:46.441Z,55.23
2024-04-07T11:59:46.444Z,53.45
2024-04-07T12:00:46.448Z,57.25
2024-04-07T12:01:46.439Z,57.07
2024-04-07T12:02:46.469Z,54.02
2024-04-07T12:03:46.540Z,49.54
2024-04-07T12:04:46.561Z,54.50
2024-04-07T12:05:46.554Z,55.07
2024-04-07T12:06:46.580Z,60.36
2024-04-07T12:07:46.580Z,51.65
2024-04-07T12:08:46.691Z,56.86
2024-04-07T12:09:46.677Z,58.19
2024-04-07T12:10:46.687Z,55.14
2024-04-07T12:11:46.688Z,56.96
2024-04-07T12:12:46.696Z,55.73
2024-04-07T12:13:46.724Z,52.83
2024-04-07T12:14:46.856Z,54.67
2024-04-07T12:15:46.938Z,57.75
2024-04-07T12:16:47.062Z,52.13
2024-04-07T12:17:47.162Z,59.98
2024-04-07T12:18:47.271Z,53.24
2024-04-07T12:19:47.275Z,54.07
2024-04-07T12:20:47.298Z,54.75
2024-04-07T12:21:47.270Z,58.80
2024-04-07T12:22:47.273Z,55.83
2024-04-07T12:23:47.307Z,53.60
2024-04-07T12:24:47.414Z,54.54
2024-04-07T12:25:47.519Z,55.56
2024-04-07T12:26:47.608Z,55.05
2024-04-07T12:27:47.713Z,55.56
2024-04-07T12:28:47.713Z,56.08
2024-04-07T12:29:47.718Z,51.71
2024-04-07T12:30:47.726Z,54.69
2024-04-07T12:31:49.183Z,54.37
2024-04-07T12:32:47.749Z,53.09
2024-04-07T12:33:47.755Z,53.80
2024-04-07T12:34:47.769Z,54.13
2024-04-07T12:35:47.773Z,54.16
2024-04-07T12:36:47.775Z,54.64
2024-04-07T12:37:49.190Z,53.58
2024-04-07T12:38:47.849Z,50.73
2024-04-07T12:39:47.862Z,54.30
2024-04-07T12:40:47.870Z,52.02
2024-04-07T12:41:47.872Z,51.13
2024-04-07T12:42:47.884Z,53.83
2024-04-07T12:43:49.399Z,53.67
2024-04-07T12:44:47.992Z,54.69
2024-04-07T12:45:48.001Z,53.63
2024-04-07T12:46:48.012Z,55.05
2024-04-07T12:47:48.014Z,55.13
2024-04-07T12:48:48.019Z,53.46
2024-04-07T12:49:48.127Z,54.65
2024-04-07T12:50:48.236Z,57.31
2024-04-07T12:51:48.323Z,56.36
2024-04-07T12:52:48.420Z,54.95